Time;durP1;ratioP1;P1;durP2;ratioP2;P2;SDS_P1;SDS_P2;PMS_P1;PMS_P2;Temp;Humidity;BMP_temperature;BMP_pressure;BME280_temperature;BME280_humidity;BME280_pressure;Samples;Min_cycle;Max_cycle;Signal;HPM_P1;HPM_P2
2023/06/21 00:01:03;;;;;;;14.17;12.33;;;20.30;99.90;;;;;;5080663;27;20576;-61
2023/06/21 00:03:30;;;;;;;19.53;12.23;;;20.40;99.90;;;;;;5082271;27;20669;-61
2023/06/21 00:05:56;;;;;;;14.83;13.43;;;20.40;99.90;;;;;;5101110;27;20492;-61
2023/06/21 00:08:24;;;;;;;21.40;13.30;;;20.30;99.90;;;;;;5103716;27;20917;-61
2023/06/21 00:10:52;;;;;;;27.90;14.77;;;20.10;99.90;;;;;;5104488;27;20720;-61
2023/06/21 00:13:19;;;;;;;13.43;12.13;;;20.10;99.90;;;;;;5091878;27;20988;-61
2023/06/21 00:15:46;;;;;;;16.20;12.67;;;19.90;99.90;;;;;;5102955;27;20489;-61
2023/06/21 00:18:13;;;;;;;26.57;13.00;;;20.00;99.90;;;;;;5105171;27;20477;-61
2023/06/21 00:20:39;;;;;;;16.10;11.53;;;19.90;99.90;;;;;;5081252;27;20480;-61
2023/06/21 00:23:07;;;;;;;13.60;10.60;;;19.90;99.90;;;;;;5087629;27;20477;-61
2023/06/21 00:25:35;;;;;;;31.53;13.43;;;19.80;99.90;;;;;;5101329;27;21359;-61
2023/06/21 00:28:02;;;;;;;15.03;12.90;;;19.60;99.90;;;;;;5100131;27;20495;-61
2023/06/21 00:30:29;;;;;;;27.30;13.43;;;19.60;99.90;;;;;;5091971;28;20865;-61
2023/06/21 00:32:55;;;;;;;28.63;14.57;;;19.60;99.90;;;;;;5092237;28;20476;-61
2023/06/21 00:35:22;;;;;;;25.20;14.53;;;19.60;99.90;;;;;;5085813;28;20477;-61
2023/06/21 00:37:49;;;;;;;15.20;12.83;;;19.60;99.90;;;;;;5062757;28;20484;-61
2023/06/21 00:40:16;;;;;;;37.27;13.67;;;19.40;99.90;;;;;;5090744;28;21021;-61
2023/06/21 00:42:44;;;;;;;23.93;12.77;;;19.40;99.90;;;;;;5075530;27;20911;-61
2023/06/21 00:45:15;;;;;;;16.83;12.50;;;19.20;99.90;;;;;;5077718;28;20888;-61
2023/06/21 00:47:41;;;;;;;22.73;10.73;;;19.20;99.90;;;;;;5059961;28;21020;-61
2023/06/21 00:50:09;;;;;;;13.10;10.30;;;19.10;99.90;;;;;;5059144;28;20488;-60
2023/06/21 00:52:37;;;;;;;21.00;11.60;;;19.00;99.90;;;;;;5041347;28;20482;-63
2023/06/21 00:55:04;;;;;;;27.23;16.00;;;18.80;99.90;;;;;;5075219;28;20491;-61
2023/06/21 00:57:31;;;;;;;18.87;12.53;;;18.70;99.90;;;;;;5073452;28;20488;-61
2023/06/21 00:59:59;;;;;;;23.27;13.70;;;18.80;99.90;;;;;;5072891;28;20482;-61
2023/06/21 01:02:26;;;;;;;27.87;13.30;;;18.70;99.90;;;;;;5063506;28;20844;-61
2023/06/21 01:04:52;;;;;;;14.90;12.33;;;18.60;99.90;;;;;;5069330;28;20488;-61
2023/06/21 01:07:28;;;;;;;40.50;15.93;;;18.60;99.90;;;;;;5087642;28;20481;-61
2023/06/21 01:10:12;;;;;;;29.13;14.83;;;18.70;99.90;;;;;;5088557;28;20481;-61
2023/06/21 01:12:52;;;;;;;20.13;14.07;;;18.90;99.90;;;;;;5058690;28;20496;-61
2023/06/21 01:15:25;;;;;;;16.30;12.17;;;19.00;99.90;;;;;;5054825;28;20899;-61
2023/06/21 01:17:53;;;;;;;22.83;12.57;;;19.10;99.90;;;;;;5073325;28;20776;-61
2023/06/21 01:20:25;;;;;;;26.80;13.00;;;19.20;99.90;;;;;;5076079;28;20821;-61
2023/06/21 01:23:09;;;;;;;22.70;12.77;;;19.30;99.90;;;;;;5072436;28;20518;-61
2023/06/21 01:25:53;;;;;;;22.73;12.83;;;19.40;99.90;;;;;;5063306;28;20953;-61
2023/06/21 01:28:41;;;;;;;28.57;14.43;;;19.40;99.90;;;;;;5087978;27;20534;-61
2023/06/21 01:31:15;;;;;;;28.90;12.77;;;19.30;99.90;;;;;;5091060;27;20470;-61
2023/06/21 01:33:43;;;;;;;36.43;12.90;;;;;;;;;;5088302;27;20486;-61
2023/06/21 01:36:10;;;;;;;27.00;12.10;;;18.90;99.90;;;;;;5072906;28;20493;-61
2023/06/21 01:38:37;;;;;;;17.20;10.87;;;18.90;99.90;;;;;;5093254;28;20489;-61
2023/06/21 01:41:04;;;;;;;22.73;11.57;;;18.90;99.90;;;;;;5094364;27;20467;-61
2023/06/21 01:43:32;;;;;;;32.20;14.30;;;19.00;99.90;;;;;;5056119;28;20481;-61
2023/06/21 01:46:01;;;;;;;17.33;12.60;;;18.80;99.90;;;;;;5088156;28;20479;-61
2023/06/21 01:48:30;;;;;;;25.23;12.70;;;18.80;99.90;;;;;;5058896;28;20528;-60
2023/06/21 01:50:58;;;;;;;19.47;13.17;;;18.70;99.90;;;;;;5072889;28;20992;-61
2023/06/21 01:53:25;;;;;;;27.83;14.00;;;18.50;99.90;;;;;;5072132;28;20504;-60
2023/06/21 01:55:56;;;;;;;35.50;16.70;;;18.50;99.90;;;;;;5067563;28;20487;-61
2023/06/21 01:58:23;;;;;;;26.23;14.50;;;18.40;99.90;;;;;;5068659;28;20542;-60
2023/06/21 02:00:50;;;;;;;50.07;18.97;;;18.40;99.90;;;;;;5058646;28;20494;-60
2023/06/21 02:03:19;;;;;;;29.33;14.63;;;18.40;99.90;;;;;;5071710;28;20489;-60
2023/06/21 02:05:48;;;;;;;33.83;17.20;;;18.40;99.90;;;;;;5073611;28;20520;-60
2023/06/21 02:08:16;;;;;;;34.60;17.90;;;18.30;99.90;;;;;;5069607;28;20552;-60
2023/06/21 02:10:44;;;;;;;33.27;15.77;;;18.30;99.90;;;;;;5078790;28;20714;-60
2023/06/21 02:13:12;;;;;;;39.03;17.37;;;18.30;99.90;;;;;;5067951;28;20479;-60
2023/06/21 02:15:40;;;;;;;41.93;16.43;;;;;;;;;;5051098;28;20484;-60
2023/06/21 02:18:08;;;;;;;32.70;15.40;;;18.40;99.90;;;;;;5092677;28;20491;-60
2023/06/21 02:20:34;;;;;;;40.10;18.57;;;18.40;99.90;;;;;;5083045;28;20929;-60
2023/06/21 02:23:02;;;;;;;54.30;20.07;;;18.50;99.90;;;;;;5076455;28;20745;-60
2023/06/21 02:25:29;;;;;;;30.73;15.90;;;18.60;99.90;;;;;;5069454;28;21047;-61
2023/06/21 02:27:56;;;;;;;33.60;16.30;;;18.60;99.90;;;;;;5073509;28;20485;-61
2023/06/21 02:30:24;;;;;;;28.80;16.37;;;18.70;99.90;;;;;;5067926;28;21086;-61
2023/06/21 02:32:51;;;;;;;33.50;16.50;;;18.70;99.90;;;;;;5060328;28;20585;-61
2023/06/21 02:35:18;;;;;;;37.57;17.93;;;18.80;99.90;;;;;;5066908;28;20532;-61
2023/06/21 02:37:44;;;;;;;39.10;14.97;;;18.90;99.90;;;;;;5063548;28;20497;-61
2023/06/21 02:40:14;;;;;;;22.43;13.23;;;19.10;99.90;;;;;;5033998;28;20493;-60
2023/06/21 02:42:41;;;;;;;28.67;15.20;;;19.10;99.90;;;;;;5047151;28;20941;-61
2023/06/21 02:45:09;;;;;;;31.03;15.07;;;19.80;99.90;;;;;;5075460;28;20469;-61
2023/06/21 02:47:36;;;;;;;23.73;14.73;;;19.10;99.90;;;;;;5069608;28;20562;-61
2023/06/21 02:50:03;;;;;;;40.07;15.10;;;19.00;99.90;;;;;;5069566;28;20483;-60
2023/06/21 02:52:30;;;;;;;28.10;15.20;;;19.00;99.90;;;;;;5065445;28;20707;-61
2023/06/21 02:54:57;;;;;;;41.73;16.30;;;18.90;99.90;;;;;;5035518;28;21021;-61
2023/06/21 02:57:26;;;;;;;24.20;17.10;;;18.80;99.90;;;;;;5063332;28;20840;-60
2023/06/21 02:59:53;;;;;;;31.97;16.37;;;18.60;99.90;;;;;;5065550;28;20510;-60
2023/06/21 03:02:21;;;;;;;32.27;17.50;;;18.50;99.90;;;;;;5059529;28;20588;-60
2023/06/21 03:04:48;;;;;;;40.70;20.53;;;18.50;99.90;;;;;;5067803;28;20768;-60
2023/06/21 03:07:15;;;;;;;30.77;15.00;;;18.50;99.90;;;;;;5056424;28;20485;-60
2023/06/21 03:09:42;;;;;;;33.00;17.97;;;18.60;99.90;;;;;;5077993;28;20481;-60
2023/06/21 03:12:09;;;;;;;34.30;17.37;;;18.70;99.90;;;;;;5067028;28;20481;-60
2023/06/21 03:14:38;;;;;;;25.63;15.37;;;18.90;99.90;;;;;;5051661;28;20486;-61
2023/06/21 03:17:05;;;;;;;25.50;16.13;;;19.00;99.90;;;;;;5046177;28;20546;-60
2023/06/21 03:19:32;;;;;;;28.10;14.67;;;19.10;99.90;;;;;;5036583;28;20489;-59
2023/06/21 03:21:59;;;;;;;22.67;15.40;;;19.20;99.90;;;;;;5060203;28;20840;-60
2023/06/21 03:24:26;;;;;;;24.23;15.90;;;19.30;99.90;;;;;;5047798;28;21019;-60
2023/06/21 03:26:53;;;;;;;25.40;15.80;;;19.40;99.90;;;;;;5067478;28;20895;-60
2023/06/21 03:29:20;;;;;;;21.53;13.90;;;19.60;99.90;;;;;;5081986;27;20917;-59
2023/06/21 03:31:48;;;;;;;30.97;14.97;;;19.80;99.90;;;;;;5080716;27;20488;-60
2023/06/21 03:34:14;;;;;;;26.90;15.37;;;19.90;99.90;;;;;;5076640;28;20534;-61
2023/06/21 03:36:41;;;;;;;26.67;13.03;;;20.00;99.90;;;;;;5069563;28;20880;-61
2023/06/21 03:39:08;;;;;;;26.97;16.47;;;20.00;99.90;;;;;;5061689;28;20486;-60
2023/06/21 03:41:34;;;;;;;18.93;13.70;;;20.20;99.90;;;;;;5062979;28;20480;-61
2023/06/21 03:44:01;;;;;;;36.93;16.37;;;20.20;99.90;;;;;;5067303;28;21001;-60
2023/06/21 03:46:28;;;;;;;28.43;14.43;;;20.30;99.90;;;;;;5090536;28;21176;-61
2023/06/21 03:48:56;;;;;;;39.30;20.70;;;20.30;99.90;;;;;;5090562;27;21127;-60
2023/06/21 03:51:23;;;;;;;30.37;15.40;;;20.20;99.90;;;;;;5086715;28;20485;-60
2023/06/21 03:53:50;;;;;;;45.63;17.97;;;20.30;99.90;;;;;;5066840;28;20485;-61
2023/06/21 03:56:17;;;;;;;26.60;16.00;;;20.20;99.90;;;;;;5084663;28;20500;-61
2023/06/21 03:58:44;;;;;;;32.47;14.83;;;20.00;99.90;;;;;;5088983;28;20480;-61
2023/06/21 04:01:11;;;;;;;25.53;14.87;;;20.00;99.90;;;;;;5090012;28;20962;-61
2023/06/21 04:03:37;;;;;;;19.13;13.70;;;19.90;99.90;;;;;;5084489;28;20806;-60
2023/06/21 04:06:05;;;;;;;33.03;14.17;;;20.00;99.90;;;;;;5090018;28;20479;-60
2023/06/21 04:08:32;;;;;;;22.47;14.40;;;20.10;99.90;;;;;;5074622;28;20493;-62
2023/06/21 04:11:00;;;;;;;27.53;17.00;;;20.20;99.90;;;;;;5056870;28;21032;-60
2023/06/21 04:13:26;;;;;;;29.67;16.00;;;20.40;99.90;;;;;;5092733;28;20485;-61
2023/06/21 04:15:53;;;;;;;34.83;18.63;;;20.30;99.90;;;;;;5092615;28;20465;-61
2023/06/21 04:18:20;;;;;;;40.63;18.93;;;20.20;99.90;;;;;;5094404;28;21044;-61
2023/06/21 04:20:49;;;;;;;28.10;16.63;;;20.00;99.90;;;;;;5089543;28;20502;-61
2023/06/21 04:23:17;;;;;;;26.20;14.67;;;19.90;99.90;;;;;;5082167;28;20482;-61
2023/06/21 04:25:43;;;;;;;22.07;16.17;;;19.90;99.90;;;;;;5064988;28;20575;-61
2023/06/21 04:28:10;;;;;;;32.80;15.70;;;19.80;99.90;;;;;;5086586;28;20488;-61
2023/06/21 04:30:37;;;;;;;25.00;15.73;;;19.80;99.90;;;;;;5067802;28;20485;-61
2023/06/21 04:33:04;;;;;;;26.13;16.70;;;19.70;99.90;;;;;;5074448;28;20474;-62
2023/06/21 04:35:32;;;;;;;33.63;18.20;;;19.70;99.90;;;;;;5067445;28;20477;-62
2023/06/21 04:38:00;;;;;;;39.23;20.20;;;19.80;99.90;;;;;;5075990;28;20493;-62
2023/06/21 04:40:28;;;;;;;23.03;15.80;;;19.90;99.90;;;;;;5091827;28;20543;-61
2023/06/21 04:42:55;;;;;;;27.23;15.30;;;20.10;99.90;;;;;;5087019;28;20578;-60
2023/06/21 04:45:22;;;;;;;31.97;19.17;;;20.30;99.90;;;;;;5064859;28;20478;-60
2023/06/21 04:47:49;;;;;;;33.73;20.43;;;20.30;99.90;;;;;;5082786;28;20492;-61
2023/06/21 04:50:19;;;;;;;25.50;15.07;;;20.40;99.90;;;;;;5088064;28;20485;-61
2023/06/21 04:52:47;;;;;;;27.33;17.00;;;20.50;99.90;;;;;;5071441;28;20474;-61
2023/06/21 04:55:17;;;;;;;24.07;16.30;;;20.50;99.90;;;;;;5060036;28;20483;-61
2023/06/21 04:57:47;;;;;;;29.63;17.20;;;20.60;99.90;;;;;;5088134;28;20486;-61
2023/06/21 05:00:15;;;;;;;22.40;15.77;;;20.60;99.90;;;;;;5090091;28;20479;-61
2023/06/21 05:02:42;;;;;;;26.03;17.40;;;20.60;99.90;;;;;;5084601;27;20477;-61
2023/06/21 05:05:09;;;;;;;27.33;19.10;;;20.60;99.90;;;;;;5069283;28;20490;-61
2023/06/21 05:07:37;;;;;;;21.20;16.33;;;20.60;99.90;;;;;;5057242;28;20502;-62
2023/06/21 05:10:05;;;;;;;35.90;17.20;;;20.70;99.90;;;;;;5072898;28;20477;-61
2023/06/21 05:12:31;;;;;;;25.67;17.50;;;20.80;99.90;;;;;;5092923;28;20479;-61
2023/06/21 05:14:59;;;;;;;35.80;23.23;;;20.80;99.90;;;;;;5092609;28;20801;-60
2023/06/21 05:17:26;;;;;;;27.63;19.30;;;20.60;99.90;;;;;;5072584;28;20638;-62
2023/06/21 05:19:53;;;;;;;30.93;20.60;;;20.70;99.90;;;;;;5072417;28;20477;-61
2023/06/21 05:22:19;;;;;;;27.00;17.60;;;20.80;99.90;;;;;;5076936;28;20985;-61
2023/06/21 05:24:46;;;;;;;30.83;18.43;;;20.90;99.90;;;;;;5073933;28;20507;-61
2023/06/21 05:27:13;;;;;;;23.90;17.90;;;21.00;99.90;;;;;;5052820;28;20532;-61
2023/06/21 05:29:40;;;;;;;23.97;17.40;;;21.00;99.90;;;;;;5067370;28;20878;-61
2023/06/21 05:32:08;;;;;;;27.57;17.87;;;20.90;99.90;;;;;;5085263;28;20489;-61
2023/06/21 05:34:35;;;;;;;23.77;17.40;;;20.90;99.90;;;;;;5081292;28;20482;-60
2023/06/21 05:37:02;;;;;;;26.00;18.60;;;20.90;99.90;;;;;;5085579;28;20968;-61
2023/06/21 05:39:28;;;;;;;27.83;18.03;;;21.00;99.90;;;;;;5067167;28;20473;-61
2023/06/21 05:41:55;;;;;;;37.37;22.43;;;20.90;99.90;;;;;;5082439;28;20936;-60
2023/06/21 05:44:22;;;;;;;26.63;19.50;;;20.90;99.90;;;;;;5093755;28;20856;-61
2023/06/21 05:46:48;;;;;;;37.87;21.40;;;20.80;99.90;;;;;;5091553;28;21017;-61
2023/06/21 05:49:18;;;;;;;25.67;17.30;;;20.90;99.90;;;;;;5073245;28;20486;-61
2023/06/21 05:51:44;;;;;;;29.23;19.67;;;20.90;99.90;;;;;;5071527;28;20483;-61
2023/06/21 05:54:11;;;;;;;28.90;18.33;;;21.10;99.90;;;;;;5090083;28;20860;-60
2023/06/21 05:56:38;;;;;;;23.47;16.97;;;21.10;99.90;;;;;;5085401;28;20890;-60
2023/06/21 05:59:04;;;;;;;22.00;16.30;;;21.10;99.90;;;;;;5081984;28;20521;-61
2023/06/21 06:01:31;;;;;;;23.33;17.90;;;21.10;99.90;;;;;;5089005;28;20513;-61
2023/06/21 06:03:58;;;;;;;28.40;19.97;;;21.10;99.90;;;;;;5073955;28;20487;-61
2023/06/21 06:06:36;;;;;;;21.47;17.10;;;21.10;99.90;;;;;;5077563;28;20868;-61
2023/06/21 06:09:03;;;;;;;31.70;19.30;;;21.10;99.90;;;;;;5077474;28;20571;-61
2023/06/21 06:11:30;;;;;;;25.73;17.20;;;21.10;99.90;;;;;;5073856;28;20772;-61
2023/06/21 06:13:56;;;;;;;27.80;17.40;;;21.10;99.90;;;;;;5081397;28;20482;-61
2023/06/21 06:16:23;;;;;;;26.57;16.93;;;21.10;99.90;;;;;;5074597;28;20873;-61
2023/06/21 06:18:50;;;;;;;32.50;20.23;;;21.20;99.90;;;;;;5072166;28;20485;-60
2023/06/21 06:21:21;;;;;;;25.70;17.37;;;21.20;99.90;;;;;;5086798;28;20519;-60
2023/06/21 06:23:50;;;;;;;22.67;14.57;;;21.20;99.90;;;;;;5079001;28;20587;-60
2023/06/21 06:26:18;;;;;;;24.77;17.20;;;21.30;99.90;;;;;;5092217;28;20478;-60
2023/06/21 06:28:45;;;;;;;26.77;17.13;;;;;;;;;;5069966;28;20497;-60
2023/06/21 06:31:13;;;;;;;24.40;17.07;;;21.50;99.90;;;;;;5075088;28;20998;-60
2023/06/21 06:33:40;;;;;;;19.60;14.20;;;21.60;99.90;;;;;;5089127;28;20469;-60
2023/06/21 06:36:07;;;;;;;25.43;16.40;;;21.70;99.90;;;;;;5097661;28;20563;-60
2023/06/21 06:38:34;;;;;;;16.33;13.50;;;21.80;99.90;;;;;;5072867;28;20730;-60
2023/06/21 06:41:02;;;;;;;23.57;15.67;;;21.90;99.90;;;;;;5106569;28;20898;-60
2023/06/21 06:43:28;;;;;;;16.50;12.50;;;21.90;99.90;;;;;;5098204;28;20493;-59
2023/06/21 06:45:55;;;;;;;26.00;17.13;;;22.00;99.90;;;;;;5084171;28;20503;-60
2023/06/21 06:48:22;;;;;;;16.27;12.30;;;22.20;99.90;;;;;;5090909;28;20508;-61
2023/06/21 06:50:49;;;;;;;20.47;13.47;;;;;;;;;;5090282;28;20482;-61
2023/06/21 06:53:16;;;;;;;14.27;11.53;;;22.40;99.90;;;;;;5089322;28;20511;-60
2023/06/21 06:55:42;;;;;;;17.20;12.20;;;22.30;99.90;;;;;;5091144;28;20482;-60
2023/06/21 06:58:10;;;;;;;22.80;12.40;;;22.40;99.90;;;;;;5093506;28;20855;-60
2023/06/21 07:00:37;;;;;;;12.03;9.10;;;22.50;99.90;;;;;;5094133;28;20502;-60
2023/06/21 07:03:04;;;;;;;17.63;12.03;;;22.50;99.90;;;;;;5097832;28;20970;-60
2023/06/21 07:05:32;;;;;;;19.80;12.47;;;;;;;;;;5095139;27;20472;-60
2023/06/21 07:07:58;;;;;;;26.67;14.20;;;22.80;99.90;;;;;;5092781;28;20966;-60
2023/06/21 07:10:25;;;;;;;13.90;9.93;;;22.90;99.90;;;;;;5069852;28;20539;-60
2023/06/21 07:12:52;;;;;;;26.83;17.10;;;;;;;;;;5085388;28;20905;-60
2023/06/21 07:15:20;;;;;;;18.07;12.27;;;23.00;99.90;;;;;;5074766;28;20481;-60
2023/06/21 07:17:47;;;;;;;25.23;15.90;;;23.30;99.90;;;;;;5092569;28;20488;-60
2023/06/21 07:20:14;;;;;;;17.03;11.20;;;23.40;99.90;;;;;;5092671;28;21017;-60
2023/06/21 07:22:41;;;;;;;17.87;12.33;;;23.60;99.90;;;;;;5093438;28;20496;-60
2023/06/21 07:25:08;;;;;;;17.73;12.03;;;23.70;99.90;;;;;;5092015;28;21051;-60
2023/06/21 07:27:35;;;;;;;16.03;11.60;;;23.90;99.90;;;;;;5095496;28;20481;-61
2023/06/21 07:30:04;;;;;;;15.33;10.90;;;24.00;99.90;;;;;;5095889;28;20486;-61
2023/06/21 07:32:33;;;;;;;14.63;10.80;;;24.10;99.90;;;;;;5094193;28;21054;-61
2023/06/21 07:35:00;;;;;;;20.90;13.90;;;24.40;99.90;;;;;;5095429;28;20493;-61
2023/06/21 07:37:27;;;;;;;15.60;12.23;;;24.60;99.90;;;;;;5095850;28;20491;-61
2023/06/21 07:39:56;;;;;;;23.70;13.93;;;24.80;99.90;;;;;;5097842;27;20505;-61
2023/06/21 07:42:23;;;;;;;12.13;9.13;;;24.80;99.90;;;;;;5092582;28;20481;-61
2023/06/21 07:44:52;;;;;;;26.67;16.70;;;24.80;99.90;;;;;;5064388;28;20886;-61
2023/06/21 07:47:19;;;;;;;14.77;10.27;;;24.70;99.90;;;;;;5097154;28;21057;-60
2023/06/21 07:49:47;;;;;;;22.60;10.10;;;24.60;99.90;;;;;;5099471;28;20488;-61
2023/06/21 07:52:14;;;;;;;13.67;11.33;;;24.70;99.90;;;;;;5095849;28;20488;-60
2023/06/21 07:54:42;;;;;;;15.17;10.67;;;24.80;99.90;;;;;;5098597;28;20602;-61
2023/06/21 07:57:09;;;;;;;16.10;10.30;;;25.10;99.90;;;;;;5087220;28;20531;-61
2023/06/21 07:59:36;;;;;;;12.97;8.60;;;25.30;99.90;;;;;;5095198;28;20494;-61
2023/06/21 08:02:03;;;;;;;18.23;12.00;;;25.40;99.90;;;;;;5098877;28;20480;-61
2023/06/21 08:04:30;;;;;;;12.00;7.27;;;25.50;99.90;;;;;;5096140;28;20479;-61
2023/06/21 08:06:58;;;;;;;18.53;11.70;;;25.70;99.40;;;;;;5099552;28;20520;-61
2023/06/21 08:09:25;;;;;;;16.27;11.33;;;25.70;99.90;;;;;;5069018;28;20486;-61
2023/06/21 08:11:51;;;;;;;15.90;9.87;;;25.40;99.10;;;;;;5097346;28;20967;-61
2023/06/21 08:14:18;;;;;;;13.20;10.40;;;25.40;99.20;;;;;;5094889;28;20507;-61
2023/06/21 08:16:45;;;;;;;15.97;10.73;;;25.40;98.80;;;;;;5095031;28;20483;-61
2023/06/21 08:19:12;;;;;;;15.23;9.33;;;25.30;99.20;;;;;;5098793;28;20465;-62
2023/06/21 08:21:39;;;;;;;10.60;9.30;;;25.30;99.30;;;;;;5097570;28;20469;-61
2023/06/21 08:24:07;;;;;;;14.63;9.57;;;25.10;99.60;;;;;;5098011;28;20503;-61
2023/06/21 08:26:34;;;;;;;14.43;8.93;;;25.10;99.90;;;;;;5073179;28;20476;-61
2023/06/21 08:29:01;;;;;;;10.87;9.77;;;25.00;99.90;;;;;;5092325;28;20447;-61
2023/06/21 08:31:28;;;;;;;9.07;7.90;;;25.10;99.90;;;;;;5097188;28;20483;-61
2023/06/21 08:33:55;;;;;;;12.80;7.33;;;25.30;99.90;;;;;;5068054;28;20483;-61
2023/06/21 08:36:22;;;;;;;8.70;7.27;;;25.30;99.70;;;;;;5094232;28;20453;-61
2023/06/21 08:38:49;;;;;;;14.63;11.00;;;25.60;99.20;;;;;;5095052;28;20510;-62
2023/06/21 08:41:17;;;;;;;12.20;7.33;;;25.90;99.30;;;;;;5095601;28;20504;-61
2023/06/21 08:43:44;;;;;;;15.00;8.20;;;26.10;99.10;;;;;;5092422;28;20503;-62
2023/06/21 08:46:11;;;;;;;9.60;8.00;;;26.20;97.30;;;;;;5088772;28;20454;-62
2023/06/21 08:48:40;;;;;;;11.90;7.67;;;26.30;97.10;;;;;;5087683;28;20470;-61
2023/06/21 08:51:07;;;;;;;10.20;8.30;;;26.10;97.60;;;;;;5095018;28;20553;-60
2023/06/21 08:53:40;;;;;;;9.10;8.00;;;26.10;97.40;;;;;;5097239;28;20475;-60
2023/06/21 08:56:10;;;;;;;10.87;8.17;;;26.20;96.70;;;;;;5095459;28;20475;-61
2023/06/21 08:58:54;;;;;;;10.50;7.70;;;26.00;96.70;;;;;;5096566;28;20459;-61
2023/06/21 09:01:23;;;;;;;11.27;8.83;;;25.80;97.10;;;;;;5084968;28;20462;-61
2023/06/21 09:03:56;;;;;;;12.73;9.87;;;25.70;96.70;;;;;;5090556;28;20541;-60
2023/06/21 09:06:24;;;;;;;9.70;8.03;;;25.80;98.10;;;;;;5085762;28;20702;-60
2023/06/21 09:08:52;;;;;;;18.20;13.83;;;25.80;97.10;;;;;;5085750;27;21064;-61
2023/06/21 09:11:19;;;;;;;9.90;8.30;;;26.00;97.20;;;;;;5087018;27;20450;-60
2023/06/21 09:13:48;;;;;;;17.53;7.80;;;26.00;96.90;;;;;;5088309;28;20558;-61
2023/06/21 09:16:15;;;;;;;14.07;8.90;;;26.10;97.90;;;;;;5091515;28;20882;-61
2023/06/21 09:18:43;;;;;;;10.50;7.83;;;26.30;97.00;;;;;;5094832;28;20498;-61
2023/06/21 09:21:12;;;;;;;10.83;7.73;;;26.00;96.10;;;;;;5094046;28;20466;-61
2023/06/21 09:23:40;;;;;;;8.40;7.33;;;25.90;96.70;;;;;;5083099;28;20485;-61
2023/06/21 09:26:08;;;;;;;6.97;6.17;;;25.70;95.80;;;;;;5086687;28;20532;-61
2023/06/21 09:28:34;;;;;;;12.90;7.83;;;27.60;97.40;;;;;;5089346;28;20536;-62
2023/06/21 09:31:02;;;;;;;10.30;7.07;;;25.90;97.50;;;;;;5088753;28;20462;-61
2023/06/21 09:33:29;;;;;;;6.80;6.10;;;26.00;97.10;;;;;;5091241;28;20488;-61
2023/06/21 09:35:57;;;;;;;10.13;6.10;;;26.00;96.30;;;;;;5092407;28;21159;-61
2023/06/21 09:38:25;;;;;;;12.00;8.80;;;26.00;96.90;;;;;;5082347;28;20588;-61
2023/06/21 09:40:51;;;;;;;13.00;9.30;;;25.90;96.20;;;;;;5094679;28;20454;-62
2023/06/21 09:43:20;;;;;;;13.30;7.80;;;26.00;96.40;;;;;;5088618;28;20907;-62
2023/06/21 09:45:59;;;;;;;14.63;10.50;;;26.10;96.20;;;;;;5084169;27;20459;-62
2023/06/21 09:48:27;;;;;;;10.00;6.70;;;26.60;96.70;;;;;;5094625;28;20832;-62
2023/06/21 09:50:55;;;;;;;17.83;12.93;;;26.80;96.70;;;;;;5062119;28;20486;-62
2023/06/21 09:53:24;;;;;;;16.03;10.53;;;26.70;95.50;;;;;;5066996;28;21060;-61
2023/06/21 09:55:51;;;;;;;14.83;8.50;;;26.80;94.90;;;;;;5091082;28;21044;-61
2023/06/21 09:58:18;;;;;;;9.10;7.70;;;;;;;;;;5086017;28;20471;-61
2023/06/21 10:00:45;;;;;;;10.57;8.80;;;26.90;94.10;;;;;;5060891;28;20618;-62
2023/06/21 10:03:11;;;;;;;13.47;8.43;;;27.50;96.10;;;;;;5079852;28;21252;-62
2023/06/21 10:05:53;;;;;;;9.27;8.37;;;27.30;93.70;;;;;;5088618;28;20506;-62
2023/06/21 10:08:24;;;;;;;9.90;5.80;;;27.30;94.70;;;;;;5079223;28;20794;-62
2023/06/21 10:10:51;;;;;;;7.60;6.30;;;27.20;93.70;;;;;;5050614;28;20870;-61
2023/06/21 10:13:24;;;;;;;7.20;6.40;;;27.30;94.10;;;;;;5086107;28;20982;-62
2023/06/21 10:15:51;;;;;;;12.50;6.50;;;27.50;94.30;;;;;;5072796;28;20902;-62
2023/06/21 10:18:17;;;;;;;5.83;5.23;;;27.80;93.90;;;;;;5058953;28;20450;-62
2023/06/21 10:20:47;;;;;;;8.13;6.10;;;28.00;93.60;;;;;;5080690;28;20484;-62
2023/06/21 10:23:15;;;;;;;8.87;5.43;;;28.10;94.00;;;;;;5060162;28;20489;-62
2023/06/21 10:25:46;;;;;;;11.57;6.33;;;28.40;92.80;;;;;;5061574;28;20564;-62
2023/06/21 10:28:15;;;;;;;8.23;5.73;;;28.60;92.70;;;;;;5056850;28;20447;-62
2023/06/21 10:30:45;;;;;;;7.50;5.70;;;28.90;94.10;;;;;;5066057;28;20486;-61
2023/06/21 10:33:15;;;;;;;6.20;5.70;;;28.90;92.30;;;;;;5070797;28;20976;-62
2023/06/21 10:35:45;;;;;;;10.13;5.70;;;28.90;91.70;;;;;;5078713;28;20488;-62
2023/06/21 10:38:22;;;;;;;5.70;5.20;;;28.90;91.20;;;;;;5093756;28;20563;-62
2023/06/21 10:40:51;;;;;;;7.57;5.50;;;28.90;91.70;;;;;;5068435;28;20463;-62
2023/06/21 10:43:20;;;;;;;7.13;6.43;;;29.20;93.10;;;;;;5064458;28;20589;-62
2023/06/21 10:45:48;;;;;;;8.10;6.10;;;29.30;93.40;;;;;;5065595;28;20467;-62
2023/06/21 10:48:15;;;;;;;6.40;5.23;;;29.30;90.80;;;;;;5078740;28;20470;-62
2023/06/21 10:50:42;;;;;;;7.20;6.60;;;29.10;91.50;;;;;;5069181;28;20463;-62
2023/06/21 10:53:10;;;;;;;8.53;7.60;;;28.90;91.20;;;;;;5076795;28;20466;-62
2023/06/21 10:55:41;;;;;;;25.63;8.70;;;28.90;92.70;;;;;;5087798;28;20480;-62
2023/06/21 10:58:08;;;;;;;6.37;5.70;;;28.90;91.30;;;;;;5067700;28;20945;-62
2023/06/21 11:00:35;;;;;;;6.67;6.07;;;28.90;91.90;;;;;;5092686;28;20549;-62
2023/06/21 11:03:02;;;;;;;12.00;6.33;;;28.70;91.00;;;;;;5088747;28;20489;-62
2023/06/21 11:05:30;;;;;;;7.60;6.80;;;28.50;91.50;;;;;;5092817;28;21481;-62
2023/06/21 11:07:59;;;;;;;6.50;5.83;;;28.60;91.30;;;;;;5093465;28;20472;-62
2023/06/21 11:10:31;;;;;;;7.23;6.47;;;28.90;92.60;;;;;;5091951;28;20454;-62
2023/06/21 11:13:00;;;;;;;6.10;5.50;;;28.70;91.60;;;;;;5079955;28;20543;-62
2023/06/21 11:15:27;;;;;;;7.50;6.80;;;28.70;91.30;;;;;;5048836;28;20480;-61
2023/06/21 11:18:01;;;;;;;13.33;7.10;;;28.70;91.50;;;;;;5068018;28;20535;-62
2023/06/21 11:20:31;;;;;;;7.27;6.60;;;28.80;91.70;;;;;;5061247;28;20560;-62
2023/06/21 11:22:59;;;;;;;12.07;7.00;;;28.60;91.00;;;;;;5062255;28;20531;-62
2023/06/21 11:25:26;;;;;;;7.00;6.40;;;28.60;91.90;;;;;;5037998;28;20516;-62
2023/06/21 11:28:23;;;;;;;9.33;6.07;;;28.80;92.30;;;;;;5039524;28;20475;-62
2023/06/21 11:31:11;;;;;;;6.60;5.97;;;28.80;91.50;;;;;;5058489;28;20488;-62
2023/06/21 11:33:52;;;;;;;7.33;6.63;;;28.90;91.30;;;;;;5046835;28;20496;-62
2023/06/21 11:36:21;;;;;;;6.37;5.70;;;28.50;90.70;;;;;;5065266;28;20841;-62
2023/06/21 11:38:51;;;;;;;17.23;7.00;;;28.70;92.30;;;;;;5044711;28;20454;-62
2023/06/21 11:41:51;;;;;;;8.57;5.50;;;28.90;91.50;;;;;;5069920;28;20471;-62
2023/06/21 11:44:24;;;;;;;9.30;7.17;;;29.10;91.00;;;;;;5079086;27;20537;-62
2023/06/21 11:46:51;;;;;;;6.67;6.00;;;29.10;90.40;;;;;;5081700;28;20944;-62
2023/06/21 11:49:18;;;;;;;13.43;6.90;;;29.20;91.20;;;;;;5091489;28;20525;-62
2023/06/21 11:51:51;;;;;;;7.20;5.83;;;29.00;90.70;;;;;;5082939;28;20547;-62
2023/06/21 11:54:30;;;;;;;7.17;6.57;;;29.00;90.60;;;;;;5083451;28;20467;-62
2023/06/21 11:56:57;;;;;;;7.73;6.83;;;29.20;90.90;;;;;;5085600;28;20479;-62
2023/06/21 11:59:25;;;;;;;7.40;6.67;;;29.20;89.90;;;;;;5083577;27;20813;-62
2023/06/21 12:01:52;;;;;;;10.67;6.70;;;29.50;90.50;;;;;;5103939;27;20442;-62
2023/06/21 12:04:25;;;;;;;8.43;5.40;;;29.40;90.00;;;;;;5095550;27;21018;-62
2023/06/21 12:06:52;;;;;;;7.57;6.23;;;;;;;;;;5069736;28;20485;-63
2023/06/21 12:09:19;;;;;;;6.63;6.03;;;29.50;88.00;;;;;;5076570;28;20462;-62
2023/06/21 12:11:48;;;;;;;6.73;6.10;;;29.40;90.90;;;;;;5090318;28;20467;-62
2023/06/21 12:14:15;;;;;;;6.30;5.70;;;29.40;87.10;;;;;;5080355;28;20801;-62
2023/06/21 12:16:43;;;;;;;6.47;5.63;;;29.30;87.30;;;;;;5068597;28;20462;-62
2023/06/21 12:19:10;;;;;;;7.53;6.67;;;29.30;88.00;;;;;;5057372;28;20455;-62
2023/06/21 12:21:39;;;;;;;10.87;6.73;;;29.10;88.40;;;;;;5086688;28;20940;-62
2023/06/21 12:24:06;;;;;;;9.93;6.07;;;29.10;88.20;;;;;;5073621;28;20866;-62
2023/06/21 12:26:33;;;;;;;6.93;6.23;;;29.10;87.30;;;;;;5047185;28;20984;-62
2023/06/21 12:28:59;;;;;;;7.23;6.20;;;29.40;90.40;;;;;;5072182;28;20485;-62
2023/06/21 12:31:30;;;;;;;7.67;6.90;;;29.50;87.20;;;;;;5072835;28;20534;-62
2023/06/21 12:34:00;;;;;;;8.20;6.50;;;29.30;88.00;;;;;;5071351;28;20869;-62
2023/06/21 12:36:29;;;;;;;10.33;6.47;;;29.40;88.20;;;;;;5074295;28;20448;-62
2023/06/21 12:38:58;;;;;;;9.30;6.47;;;29.40;90.20;;;;;;5058255;28;20458;-62
2023/06/21 12:41:25;;;;;;;6.60;6.10;;;29.20;87.70;;;;;;5062591;28;20722;-62